WetterOnline ( https://www.wetteronline.de )

Wetter aktuell Donau-Ries

Aktuelles Wetter: Harburg (503m)

6-stündlich | Neueste Meldungen
Ortszeit Temperatur Wetter
Mi, 28.09. 14:00 10.1° C bedeckt
Mi, 28.09. 8:00 8.6° C bedeckt
Mi, 28.09. 2:00 6.7° C leichter Regen
Di, 27.09. 20:00 7.0° C wolkig
Di, 27.09. 14:00 9.0° C Sprühregen
Di, 27.09. 8:00 8.4° C bewölkt
Di, 27.09. 2:00 9.6° C leichter Regen
Mo, 26.09. 20:00 11.4° C leichter Regen
Ortszeit Temperatur Wetter
Mi, 28.09. 18:00 9.6° C bedeckt
Mi, 28.09. 17:50 9.6° C bedeckt
Mi, 28.09. 17:40 9.7° C bedeckt
Mi, 28.09. 17:30 10.0° C bewölkt
Mi, 28.09. 17:20 10.0° C bewölkt
Mi, 28.09. 17:10 10.1° C bedeckt
Mi, 28.09. 17:00 10.1° C bedeckt
Mi, 28.09. 16:30 10.3° C wolkig
Mi, 28.09. 16:00 10.2° C bedeckt
Mi, 28.09. 15:30 10.4° C wolkig
Mi, 28.09. 15:00 10.3° C bedeckt
Ortszeit Relative Feuchte Sichtweite
Mi, 28.09. 14:00 73% >70 km
Mi, 28.09. 8:00 90% 50 km
Mi, 28.09. 2:00 93% 22 km
Di, 27.09. 20:00 90% >70 km
Di, 27.09. 14:00 78% 35 km
Di, 27.09. 8:00 85% 65 km
Di, 27.09. 2:00 90% 35 km
Mo, 26.09. 20:00 72% 45 km
Ortszeit Relative Feuchte Sichtweite
Mi, 28.09. 18:00 76% 55 km
Mi, 28.09. 17:50 76% -
Mi, 28.09. 17:40 74% -
Mi, 28.09. 17:30 72% 60 km
Mi, 28.09. 17:20 72% -
Mi, 28.09. 17:10 71% -
Mi, 28.09. 17:00 70% 55 km
Mi, 28.09. 16:30 68% >70 km
Mi, 28.09. 16:00 65% >70 km
Mi, 28.09. 15:30 66% 55 km
Mi, 28.09. 15:00 66% 55 km
Ortszeit Niederschlagsmenge Niederschlagsart
Mi, 28.09. 14:00 1 l/m2 in 6 Std. Regen
Mi, 28.09. 8:00 1 l/m2 in 12 Std. Regen
Mi, 28.09. 2:00 0.1 l/m2 in 6 Std. Regen
Di, 27.09. 20:00 3 l/m2 in 12 Std. Regen
Di, 27.09. 14:00 0.1 l/m2 in 6 Std. Regen
Di, 27.09. 8:00 2 l/m2 in 12 Std. Regen
Di, 27.09. 2:00 0.5 l/m2 in 6 Std. Regen
Mo, 26.09. 20:00 0.1 l/m2 in 12 Std. Regen
Ortszeit Niederschlagsmenge Niederschlagsart
Mi, 28.09. 18:00 0.0 l/m2 in 1 Std. -
Mi, 28.09. 17:50 keine Meldung -
Mi, 28.09. 17:40 keine Meldung -
Mi, 28.09. 17:30 0.0 l/m2 in 1 Std. -
Mi, 28.09. 17:20 keine Meldung -
Mi, 28.09. 17:10 keine Meldung -
Mi, 28.09. 17:00 0.0 l/m2 in 1 Std. -
Mi, 28.09. 16:30 0.0 l/m2 in 1 Std. -
Mi, 28.09. 16:00 0.0 l/m2 in 1 Std. -
Mi, 28.09. 15:30 0.0 l/m2 in 1 Std. -
Mi, 28.09. 15:00 0.0 l/m2 in 1 Std. -
Ortszeit Stärke Spitze Richtung
km/h Bft. km/h Grad Sektor
Mi, 28.09. 14:00 19 3 33 280° W
Mi, 28.09. 8:00 25 4 47 220° SW
Mi, 28.09. 2:00 25 4 36 210° SW
Di, 27.09. 20:00 7 2 58 270° W
Di, 27.09. 14:00 24 4 59 280° W
Di, 27.09. 8:00 20 4 50 260° W
Di, 27.09. 2:00 20 4 44 220° SW
Mo, 26.09. 20:00 9 2 35 210° SW
Ortszeit Stärke Spitze Richtung
km/h Bft. km/h Grad Sektor
Mi, 28.09. 18:00 13 3 20 230° SW
Mi, 28.09. 17:50 13 3 - 230° SW
Mi, 28.09. 17:40 14 3 - 230° SW
Mi, 28.09. 17:30 11 2 18 240° SW
Mi, 28.09. 17:20 11 2 - 240° SW
Mi, 28.09. 17:10 11 2 - 240° SW
Mi, 28.09. 17:00 9 2 30 270° W
Mi, 28.09. 16:30 13 3 30 240° SW
Mi, 28.09. 16:00 18 3 29 270° W
Mi, 28.09. 15:30 17 3 30 280° W
Mi, 28.09. 15:00 18 3 32 270° W
Ortszeit Untergrenze Bedeckung Gattung
total tief tief mittel hoch
Mi, 28.09. 14:00 4800 m 8/8 8/8 - - -
Mi, 28.09. 8:00 900 m 8/8 8/8 - - -
Mi, 28.09. 2:00 990 m 8/8 8/8 - - -
Di, 27.09. 20:00 840 m 5/8 5/8 - - -
Di, 27.09. 14:00 570 m 8/8 3/8 - - -
Di, 27.09. 8:00 600 m 7/8 7/8 - - -
Di, 27.09. 2:00 1050 m 8/8 8/8 - - -
Mo, 26.09. 20:00 1410 m 8/8 8/8 - - -
Ortszeit Bedeckungsgrad in Achtel und Wolkenuntergrenze
Mi, 28.09. 18:00 8(3900m)
Mi, 28.09. 17:50 8(3900m)
Mi, 28.09. 17:40 8
Mi, 28.09. 17:30 4(1200m) 8(3900m) 8(4500m)
Mi, 28.09. 17:20 4(1200m) 8(3900m) 8(4500m)
Mi, 28.09. 17:10 8
Mi, 28.09. 17:00 8(3900m)
Mi, 28.09. 16:30 1(810m) 8(3900m)
Mi, 28.09. 16:00 7(3900m) 8(4500m)
Mi, 28.09. 15:30 1(810m) 8(4500m)
Mi, 28.09. 15:00 8(4800m)
Ortszeit Luftdruck NN (hPa) Tendenz (hPa in 3 Std.)
Mi, 28.09. 14:00 999 + 0,7
Mi, 28.09. 8:00 997 - 1,4
Mi, 28.09. 2:00 1002 - 1,1
Di, 27.09. 20:00 1003 + 0,2
Di, 27.09. 14:00 1002 + 0,5
Di, 27.09. 8:00 1000 + 1,0
Di, 27.09. 2:00 1001 - 2,5
Mo, 26.09. 20:00 1005 - 0,6
Ortszeit Luftdruck NN (hPa) Tendenz (hPa in 3 Std.)
Mi, 28.09. 18:00 1000 + 0,8
Mi, 28.09. 17:50 1000 keine Meldung
Mi, 28.09. 17:40 1000 keine Meldung
Mi, 28.09. 17:30 1000 + 0,8
Mi, 28.09. 17:20 1000 keine Meldung
Mi, 28.09. 17:10 1000 keine Meldung
Mi, 28.09. 17:00 1000 + 0,6
Mi, 28.09. 16:30 1000 + 0,4
Mi, 28.09. 16:00 1000 + 0,5
Mi, 28.09. 15:30 1000 + 0,4
Mi, 28.09. 15:00 999 + 0,5
Ortszeit Schneehöhe (cm)
Mi, 28.09. 14:00 0
Mi, 28.09. 8:00 0
Mi, 28.09. 2:00 0
Di, 27.09. 20:00 0
Di, 27.09. 14:00 0
Di, 27.09. 8:00 0
Di, 27.09. 2:00 0
Mo, 26.09. 20:00 0
Ortszeit Schneehöhe (cm)
Mi, 28.09. 18:00 0
Mi, 28.09. 17:50 0
Mi, 28.09. 17:40 0
Mi, 28.09. 17:30 0
Mi, 28.09. 17:20 0
Mi, 28.09. 17:10 0
Mi, 28.09. 17:00 0
Mi, 28.09. 16:30 0
Mi, 28.09. 16:00 0
Mi, 28.09. 15:30 0
Mi, 28.09. 15:00 0
Link zu dieser Seite / Seite empfehlen

Das Wetter in ...